Time;durP1;ratioP1;P1;durP2;ratioP2;P2;SDS_P1;SDS_P2;PMS_P1;PMS_P2;Temp;Humidity;BMP_temperature;BMP_pressure;BME280_temperature;BME280_humidity;BME280_pressure;Samples;Min_cycle;Max_cycle;Signal;HPM_P1;HPM_P2
2022/09/12 00:02:37;;;;;;;3.23;3.00;;;;;;;13.43;90.61;97814.69;6090988;29;20247;-70
2022/09/12 00:05:46;;;;;;;4.53;3.37;;;;;;;13.41;90.84;97815.78;6089309;29;20235;-70
2022/09/12 00:08:50;;;;;;;4.00;3.30;;;;;;;13.40;90.59;97816.75;6092680;29;20232;-71
2022/09/12 00:11:52;;;;;;;3.10;2.90;;;;;;;13.40;90.16;97814.09;6076896;29;20737;-71
2022/09/12 00:14:54;;;;;;;4.10;3.70;;;;;;;13.39;90.29;97807.97;6085375;29;20232;-71
2022/09/12 00:17:56;;;;;;;3.50;3.20;;;;;;;13.38;90.64;97806.28;6086101;29;20231;-71
2022/09/12 00:21:03;;;;;;;3.97;3.53;;;;;;;13.38;91.03;97814.25;6084789;29;20580;-71
2022/09/12 00:24:06;;;;;;;2.90;2.70;;;;;;;13.25;91.05;97809.22;6085305;29;20223;-71
2022/09/12 00:27:08;;;;;;;4.43;3.77;;;;;;;13.18;91.27;97812.53;6100130;29;20208;-71
2022/09/12 00:30:10;;;;;;;3.40;3.10;;;;;;;13.21;91.70;97818.41;6084837;29;20248;-71
2022/09/12 00:33:14;;;;;;;5.57;4.17;;;;;;;13.19;91.64;97803.59;6085207;29;20251;-71
2022/09/12 00:36:19;;;;;;;3.40;3.10;;;;;;;13.08;91.98;97793.94;6085802;29;21787;-71
2022/09/12 00:39:21;;;;;;;4.03;3.50;;;;;;;12.98;92.16;97792.25;6085731;29;20236;-71
2022/09/12 00:42:23;;;;;;;4.83;3.77;;;;;;;12.88;93.06;97794.84;6085739;29;20238;-71
2022/09/12 00:45:27;;;;;;;4.00;3.40;;;;;;;12.75;93.11;97784.50;6100664;29;20332;-71
2022/09/12 00:48:42;;;;;;;3.70;3.40;;;;;;;12.64;93.27;97797.00;6100081;29;20651;-71
2022/09/12 00:52:16;;;;;;;4.17;3.50;;;;;;;12.56;94.02;97797.66;6085682;29;20239;-71
2022/09/12 00:55:26;;;;;;;3.63;3.33;;;;;;;12.51;94.46;97795.41;6084143;29;20236;-71
2022/09/12 00:58:35;;;;;;;4.57;4.10;;;;;;;12.49;94.21;97794.69;6089828;29;20248;-71
2022/09/12 01:02:00;;;;;;;4.70;4.30;;;;;;;12.47;94.98;97798.47;6089474;29;20240;-71
2022/09/12 01:05:05;;;;;;;4.47;3.47;;;;;;;12.45;94.50;97800.41;6089084;29;20228;-71
2022/09/12 01:08:07;;;;;;;4.17;3.77;;;;;;;12.44;95.00;97785.50;6089565;29;20554;-71
2022/09/12 01:11:11;;;;;;;4.17;3.83;;;;;;;12.39;95.06;97779.72;6089523;29;20235;-71
2022/09/12 01:14:15;;;;;;;4.93;4.53;;;;;;;12.36;95.45;97775.56;6089469;29;20231;-71
2022/09/12 01:17:17;;;;;;;5.00;4.50;;;;;;;12.30;96.10;97775.22;6090167;29;20228;-70
2022/09/12 01:20:47;;;;;;;4.10;3.70;;;;;;;12.31;95.67;97767.16;6089518;29;20605;-71
2022/09/12 01:24:20;;;;;;;4.77;4.37;;;;;;;12.32;96.07;97771.50;6088944;29;20604;-71
2022/09/12 01:27:43;;;;;;;5.07;4.57;;;;;;;12.28;96.19;97779.84;6088342;29;20237;-71
2022/09/12 01:31:10;;;;;;;4.90;4.50;;;;;;;12.28;95.77;97771.91;6089982;29;20228;-71
2022/09/12 01:34:21;;;;;;;5.30;4.63;;;;;;;12.27;96.37;97771.06;6102973;29;20233;-71
2022/09/12 01:37:38;;;;;;;5.40;4.90;;;;;;;12.26;96.00;97772.03;6089945;29;20725;-71
2022/09/12 01:41:07;;;;;;;5.20;4.70;;;;;;;12.23;96.51;97767.00;6088983;29;20232;-71
2022/09/12 01:44:21;;;;;;;4.97;4.40;;;;;;;12.18;96.62;97764.72;6102927;29;20241;-71
2022/09/12 01:47:43;;;;;;;5.43;4.93;;;;;;;12.14;96.71;97765.97;6089743;29;20305;-71
2022/09/12 01:51:01;;;;;;;5.03;4.53;;;;;;;12.08;96.47;97768.28;6087963;29;20635;-71
2022/09/12 01:54:39;;;;;;;5.93;4.23;;;;;;;12.03;96.87;97768.69;6088310;29;20240;-71
2022/09/12 01:58:06;;;;;;;4.97;4.57;;;;;;;11.93;96.71;97765.16;6088777;29;20263;-71
2022/09/12 02:01:26;;;;;;;7.80;5.27;;;;;;;11.89;97.07;97766.38;6102987;29;20231;-71
2022/09/12 02:04:34;;;;;;;5.97;5.40;;;;;;;11.81;97.18;97760.88;6087128;29;20290;-71
2022/09/12 02:07:46;;;;;;;7.20;5.20;;;;;;;11.78;97.50;97761.13;6087873;29;20228;-71
2022/09/12 02:10:58;;;;;;;5.43;4.93;;;;;;;11.71;97.28;97760.78;6087991;29;20247;-71
2022/09/12 02:14:05;;;;;;;6.40;4.80;;;;;;;11.69;97.63;97760.06;6102517;29;20251;-71
2022/09/12 02:17:15;;;;;;;6.60;5.53;;;;;;;11.66;97.50;97754.22;6101703;29;20250;-71
2022/09/12 02:20:23;;;;;;;5.93;5.33;;;;;;;11.62;97.79;97758.06;6101938;29;20239;-71
2022/09/12 02:23:51;;;;;;;10.93;6.77;;;;;;;11.73;98.41;97755.38;6088075;29;20275;-71
2022/09/12 02:27:05;;;;;;;7.00;6.30;;;;;;;11.86;98.60;97758.72;6101944;29;20718;-71
2022/09/12 02:30:08;;;;;;;7.13;6.40;;;;;;;11.94;98.76;97763.34;6102473;29;20254;-71
2022/09/12 02:33:16;;;;;;;6.90;6.30;;;;;;;11.98;98.60;97757.66;6087491;29;20273;-71
2022/09/12 02:36:34;;;;;;;8.97;6.37;;;;;;;11.97;98.86;97760.44;6087636;29;20703;-71
2022/09/12 02:39:36;;;;;;;5.63;5.13;;;;;;;11.88;98.78;97755.94;6087656;29;20240;-71
2022/09/12 02:42:41;;;;;;;6.27;5.67;;;;;;;11.82;98.93;97751.97;6101227;29;20247;-70
2022/09/12 02:45:43;;;;;;;6.57;5.60;;;;;;;11.80;98.80;97748.63;6102248;29;20295;-71
2022/09/12 02:48:45;;;;;;;5.67;5.17;;;;;;;11.76;98.69;97749.88;6102640;29;20648;-71
2022/09/12 02:51:48;;;;;;;6.40;5.80;;;;;;;11.72;99.28;97751.06;6092497;29;20239;-71
2022/09/12 02:54:50;;;;;;;6.03;5.20;;;;;;;11.65;98.77;97739.31;6087353;29;20611;-71
2022/09/12 02:57:52;;;;;;;6.37;5.77;;;;;;;11.59;98.78;97739.81;6087821;29;20331;-71
2022/09/12 03:01:32;;;;;;;6.20;5.50;;;;;;;11.56;98.72;97740.09;6087426;29;20280;-71
2022/09/12 03:04:47;;;;;;;5.80;5.20;;;;;;;11.51;99.09;97739.63;6087279;29;20265;-71
2022/09/12 03:07:59;;;;;;;6.20;5.60;;;;;;;11.46;99.03;97738.22;6086438;29;20236;-71
2022/09/12 03:11:12;;;;;;;8.30;5.03;;;;;;;11.43;99.07;97745.53;6101102;29;20240;-71
2022/09/12 03:14:26;;;;;;;6.13;5.47;;;;;;;11.38;99.21;97739.78;6100480;29;20240;-71
2022/09/12 03:18:06;;;;;;;6.23;5.63;;;;;;;11.35;99.13;97742.69;6087201;29;20619;-71
2022/09/12 03:21:32;;;;;;;5.77;5.13;;;;;;;11.29;99.31;97733.47;6021678;29;20246;-71
2022/09/12 03:24:46;;;;;;;6.63;5.53;;;;;;;11.27;99.26;97737.22;6036975;29;20233;-71
2022/09/12 03:28:06;;;;;;;6.00;5.40;;;;;;;11.21;99.38;97740.34;6038191;29;20243;-71
2022/09/12 03:31:18;;;;;;;5.13;4.53;;;;;;;11.15;99.38;97738.22;6036866;29;20250;-70
2022/09/12 03:34:22;;;;;;;6.57;5.03;;;;;;;11.14;99.40;97733.91;6036415;29;20783;-71
2022/09/12 03:37:24;;;;;;;5.63;5.00;;;;;;;11.13;99.48;97729.56;6036245;29;20239;-70
2022/09/12 03:40:25;;;;;;;6.27;4.97;;;;;;;11.10;99.33;97728.84;6037242;29;20236;-70
2022/09/12 03:43:27;;;;;;;6.17;5.23;;;;;;;11.06;99.62;97732.72;6036515;29;20247;-70
2022/09/12 03:46:29;;;;;;;7.30;5.10;;;;;;;11.04;99.58;97724.09;6035531;29;20768;-70
2022/09/12 03:49:31;;;;;;;6.63;5.47;;;;;;;11.01;99.67;97726.97;6036072;29;20734;-70
2022/09/12 03:52:34;;;;;;;5.40;4.90;;;;;;;10.99;99.75;97728.03;6036704;29;20246;-70
2022/09/12 03:55:38;;;;;;;5.27;4.77;;;;;;;10.97;99.46;97728.19;6073667;29;20265;-71
2022/09/12 03:58:40;;;;;;;5.13;4.67;;;;;;;10.93;99.76;97725.91;6086568;29;20242;-70
2022/09/12 04:01:42;;;;;;;5.30;4.90;;;;;;;10.92;99.89;97727.72;6100305;29;20226;-70
2022/09/12 04:04:47;;;;;;;5.80;5.23;;;;;;;10.91;99.76;97726.03;6085277;29;20227;-71
2022/09/12 04:07:50;;;;;;;6.20;5.03;;;;;;;10.88;99.69;97733.38;6100215;29;20235;-71
2022/09/12 04:10:52;;;;;;;5.63;5.13;;;;;;;10.87;99.73;97726.41;6085942;29;20250;-71
2022/09/12 04:13:54;;;;;;;5.40;4.70;;;;;;;10.84;99.95;97726.66;6086020;29;20246;-71
2022/09/12 04:16:56;;;;;;;6.07;4.83;;;;;;;10.80;100.00;97730.50;6085441;29;20249;-71
2022/09/12 04:19:58;;;;;;;6.93;4.70;;;;;;;10.78;100.00;97732.44;6085511;29;20730;-70
2022/09/12 04:22:59;;;;;;;6.20;4.80;;;;;;;10.78;100.00;97735.88;6086099;29;20237;-71
2022/09/12 04:26:05;;;;;;;5.20;4.50;;;;;;;10.78;100.00;97732.44;6086416;29;20226;-70
2022/09/12 04:29:10;;;;;;;4.93;4.43;;;;;;;10.81;100.00;97735.66;6087182;29;20257;-70
2022/09/12 04:32:12;;;;;;;5.00;4.60;;;;;;;10.85;100.00;97730.97;6103408;29;20247;-70
2022/09/12 04:35:14;;;;;;;5.23;4.83;;;;;;;10.87;100.00;97731.69;6090618;29;20234;-71
2022/09/12 04:38:16;;;;;;;5.90;5.20;;;;;;;10.90;100.00;97739.34;6090046;29;20242;-71
2022/09/12 04:41:24;;;;;;;7.53;5.20;;;;;;;10.92;100.00;97727.72;6090910;29;20744;-71
2022/09/12 04:44:26;;;;;;;5.53;5.00;;;;;;;10.96;100.00;97717.75;6103908;29;20252;-71
2022/09/12 04:47:28;;;;;;;4.83;4.43;;;;;;;11.00;100.00;97727.09;6104676;29;20721;-71
2022/09/12 04:50:30;;;;;;;5.60;5.00;;;;;;;11.07;100.00;97728.28;6090584;29;20226;-71
2022/09/12 04:53:31;;;;;;;5.17;4.67;;;;;;;11.13;100.00;97738.34;6088845;29;20598;-71
2022/09/12 04:56:38;;;;;;;6.30;5.23;;;;;;;11.23;100.00;97733.13;6089666;29;20310;-70
2022/09/12 04:59:40;;;;;;;5.57;5.07;;;;;;;11.31;100.00;97731.53;6103256;29;20231;-70
2022/09/12 05:02:42;;;;;;;8.73;5.43;;;;;;;11.40;100.00;97738.69;6089983;29;20231;-70
2022/09/12 05:05:44;;;;;;;6.77;5.77;;;;;;;11.51;100.00;97734.34;6090278;29;20235;-71
2022/09/12 05:08:46;;;;;;;6.37;5.20;;;;;;;11.72;100.00;97745.75;6088889;29;20250;-71
2022/09/12 05:11:48;;;;;;;9.57;5.93;;;;;;;11.92;100.00;97747.59;6089537;29;20251;-71
2022/09/12 05:15:07;;;;;;;7.07;5.70;;;;;;;12.17;99.74;97749.00;6088949;29;20770;-70
2022/09/12 05:18:09;;;;;;;6.87;6.10;;;;;;;12.45;97.51;97766.00;6103067;29;20233;-70
2022/09/12 05:21:15;;;;;;;6.33;5.13;;;;;;;12.73;95.97;97761.78;6103713;29;20264;-71
2022/09/12 05:24:17;;;;;;;5.83;5.20;;;;;;;12.90;94.67;97767.25;6088834;29;20248;-71
2022/09/12 05:27:19;;;;;;;7.77;4.93;;;;;;;13.05;93.15;97772.19;6089181;29;20243;-71
2022/09/12 05:30:21;;;;;;;5.50;5.00;;;;;;;13.10;92.38;97776.09;6089142;29;20492;-71
2022/09/12 05:33:23;;;;;;;5.63;5.13;;;;;;;13.18;92.21;97783.38;6089129;29;20240;-71
2022/09/12 05:36:28;;;;;;;4.63;4.23;;;;;;;13.22;91.50;97790.94;6103387;29;20231;-71
2022/09/12 05:39:30;;;;;;;5.53;4.70;;;;;;;13.20;91.79;97786.72;6089222;29;20223;-72
2022/09/12 05:42:33;;;;;;;6.93;5.33;;;;;;;13.23;91.42;97787.31;6102511;29;20635;-71
2022/09/12 05:45:34;;;;;;;5.90;4.37;;;;;;;13.24;91.30;97789.00;6103456;29;20363;-71
2022/09/12 05:48:38;;;;;;;5.90;4.67;;;;;;;13.27;90.82;97777.28;6102905;29;20239;-72
2022/09/12 05:51:43;;;;;;;6.30;4.03;;;;;;;13.27;90.48;97780.78;6089211;29;20231;-72
2022/09/12 05:54:47;;;;;;;5.90;4.70;;;;;;;13.21;90.32;97778.66;6088840;29;20234;-71
2022/09/12 05:57:50;;;;;;;5.60;5.00;;;;;;;13.24;90.47;97782.84;6091774;29;20227;-72
2022/09/12 06:00:52;;;;;;;4.63;4.23;;;;;;;13.27;89.82;97782.59;6088351;29;20239;-72
2022/09/12 06:03:56;;;;;;;5.80;4.27;;;;;;;13.32;89.09;97780.34;6089106;29;20238;-71
2022/09/12 06:06:58;;;;;;;5.77;4.30;;;;;;;13.35;89.27;97773.94;6087187;29;20611;-71
2022/09/12 06:10:02;;;;;;;5.47;4.60;;;;;;;13.39;88.58;97778.81;6088741;29;20264;-72
2022/09/12 06:13:04;;;;;;;4.50;4.00;;;;;;;13.51;87.80;97776.88;6087645;29;20239;-72
2022/09/12 06:16:11;;;;;;;7.33;4.47;;;;;;;13.58;86.89;97778.81;6102621;29;20228;-71
2022/09/12 06:19:18;;;;;;;5.43;4.17;;;;;;;13.70;85.66;97776.03;6087797;29;20254;-72
2022/09/12 06:22:20;;;;;;;4.57;4.10;;;;;;;13.77;84.39;97783.31;6087851;29;20243;-71
2022/09/12 06:25:22;;;;;;;5.00;4.23;;;;;;;13.81;84.03;97779.38;6088140;29;20236;-72
2022/09/12 06:28:25;;;;;;;5.13;4.27;;;;;;;13.83;83.74;97779.25;6087185;29;20272;-72
2022/09/12 06:31:36;;;;;;;4.60;3.90;;;;;;;13.90;82.84;97786.47;6102638;29;20727;-72
2022/09/12 06:34:38;;;;;;;5.90;4.00;;;;;;;13.90;84.22;97794.44;6106853;29;20242;-72
2022/09/12 06:37:43;;;;;;;4.37;3.60;;;;;;;13.88;85.34;97784.94;6087873;29;20254;-71
2022/09/12 06:40:45;;;;;;;4.10;3.70;;;;;;;13.91;85.75;97785.50;6101968;29;20713;-72
2022/09/12 06:43:48;;;;;;;3.63;3.33;;;;;;;14.00;85.12;97776.69;6086936;29;20227;-71
2022/09/12 06:46:50;;;;;;;5.53;4.17;;;;;;;14.16;82.90;97780.59;6087392;29;20230;-72
2022/09/12 06:49:52;;;;;;;4.77;4.27;;;;;;;14.35;81.48;97778.72;6087390;29;20235;-72
2022/09/12 06:52:54;;;;;;;4.43;3.70;;;;;;;14.56;79.50;97777.72;6084671;29;20611;-71
2022/09/12 06:56:02;;;;;;;7.20;3.77;;;;;;;14.86;77.99;97781.94;6087486;29;20246;-72
2022/09/12 06:59:04;;;;;;;6.83;3.47;;;;;;;15.01;77.57;97786.59;6086948;29;20240;-71
2022/09/12 07:02:18;;;;;;;4.47;3.67;;;;;;;15.20;76.63;97777.66;6087279;29;20243;-71
2022/09/12 07:05:20;;;;;;;4.50;3.53;;;;;;;15.40;76.05;97789.84;6100730;29;20239;-71
2022/09/12 07:08:22;;;;;;;4.77;3.77;;;;;;;15.49;75.02;97786.28;6088259;29;20239;-71
2022/09/12 07:11:27;;;;;;;5.30;3.97;;;;;;;15.61;74.60;97791.41;6086560;29;20248;-70
2022/09/12 07:14:29;;;;;;;3.57;3.13;;;;;;;15.77;73.89;97800.38;6087141;29;20223;-71
2022/09/12 07:17:31;;;;;;;4.83;3.97;;;;;;;15.79;72.66;97801.06;6086009;29;20232;-71
2022/09/12 07:20:33;;;;;;;3.90;3.30;;;;;;;15.78;73.48;97793.22;6085726;29;20227;-70
2022/09/12 07:23:35;;;;;;;5.07;3.70;;;;;;;15.78;72.51;97799.38;6084778;29;20232;-71
2022/09/12 07:26:39;;;;;;;4.50;3.77;;;;;;;15.83;73.62;97799.78;6086383;29;20239;-72
2022/09/12 07:29:41;;;;;;;4.23;3.57;;;;;;;15.92;73.15;97807.81;6100720;29;20301;-71
2022/09/12 07:32:43;;;;;;;4.10;3.43;;;;;;;15.97;73.90;97805.56;6100670;29;20332;-71
2022/09/12 07:35:45;;;;;;;4.43;3.50;;;;;;;16.02;74.38;97812.06;6100417;29;20238;-70
2022/09/12 07:38:47;;;;;;;4.03;3.20;;;;;;;16.03;74.31;97799.59;6100659;29;20242;-72
2022/09/12 07:41:50;;;;;;;4.03;3.13;;;;;;;16.22;73.13;97807.41;6086059;29;20309;-71
2022/09/12 07:44:52;;;;;;;4.03;3.40;;;;;;;16.44;71.99;97814.06;6100913;29;20318;-72
2022/09/12 07:47:54;;;;;;;5.40;3.47;;;;;;;16.63;70.65;97815.69;6085883;29;20370;-72
2022/09/12 07:51:02;;;;;;;4.67;3.13;;;;;;;16.65;70.81;97817.22;6086440;29;20770;-71
2022/09/12 07:54:08;;;;;;;4.30;3.40;;;;;;;16.47;71.21;97822.53;6085517;29;20692;-71
2022/09/12 07:57:10;;;;;;;4.97;4.47;;;;;;;16.53;70.55;97823.78;6086768;29;20235;-71
2022/09/12 08:00:12;;;;;;;6.40;3.73;;;;;;;17.07;68.78;97829.78;6085883;29;20250;-72
2022/09/12 08:03:14;;;;;;;3.67;3.17;;;;;;;17.66;67.12;97839.50;6086141;29;20307;-72
2022/09/12 08:06:29;;;;;;;4.17;3.50;;;;;;;18.07;65.59;97825.16;6084771;29;20729;-72
2022/09/12 08:09:31;;;;;;;3.83;3.17;;;;;;;18.49;64.60;97815.28;6086036;29;20228;-72
2022/09/12 08:12:33;;;;;;;5.23;3.70;;;;;;;18.84;63.10;97830.13;6085972;29;20231;-72
2022/09/12 08:15:35;;;;;;;4.83;2.90;;;;;;;19.11;62.40;97821.69;6085563;29;20227;-72
2022/09/12 08:18:38;;;;;;;3.80;3.47;;;;;;;19.33;61.13;97833.47;6100376;29;20742;-72
2022/09/12 08:21:40;;;;;;;3.57;3.20;;;;;;;19.58;59.95;97827.00;6085324;29;20699;-69
2022/09/12 08:24:42;;;;;;;3.10;2.80;;;;;;;19.67;58.72;97825.94;6085181;29;20230;-69
2022/09/12 08:27:45;;;;;;;6.70;3.43;;;;;;;19.73;58.98;97825.25;6086093;29;20227;-70
2022/09/12 08:30:48;;;;;;;3.50;3.20;;;;;;;19.81;57.42;97829.72;6099634;29;20278;-69
2022/09/12 08:33:53;;;;;;;3.17;2.60;;;;;;;19.02;58.97;97823.56;6084971;29;20250;-70
2022/09/12 08:36:56;;;;;;;3.57;2.77;;;;;;;18.77;60.09;97819.28;6085694;29;20280;-69
2022/09/12 08:39:58;;;;;;;3.40;3.03;;;;;;;18.85;59.93;97813.94;6085707;29;20236;-69
2022/09/12 08:43:30;;;;;;;3.57;3.20;;;;;;;18.72;61.15;97816.28;6085368;29;20263;-69
2022/09/12 08:46:40;;;;;;;4.97;3.00;;;;;;;18.56;61.91;97816.31;6083516;29;20236;-72
2022/09/12 08:49:52;;;;;;;2.83;2.53;;;;;;;19.12;60.97;97807.31;6085656;29;20244;-69
2022/09/12 08:53:02;;;;;;;3.73;2.33;;;;;;;18.87;60.36;97825.25;6084984;29;20323;-69
2022/09/12 08:56:07;;;;;;;2.67;2.47;;;;;;;18.99;60.85;97817.72;6085183;29;20549;-73
2022/09/12 08:59:09;;;;;;;3.30;2.60;;;;;;;19.11;60.33;97814.50;6092821;29;20619;-71
2022/09/12 09:02:36;;;;;;;4.03;3.10;;;;;;;18.80;60.98;97818.94;6100043;29;20583;-71
2022/09/12 09:06:01;;;;;;;3.30;3.00;;;;;;;19.03;60.58;97819.03;6099000;29;20735;-69
2022/09/12 09:09:41;;;;;;;2.87;2.63;;;;;;;19.06;60.43;97816.88;6080471;29;20634;-71
2022/09/12 09:12:52;;;;;;;3.67;2.60;;;;;;;19.30;60.57;97810.56;6084745;29;20239;-69
2022/09/12 09:16:26;;;;;;;3.07;2.77;;;;;;;19.83;57.90;97798.22;6086328;29;20239;-69
2022/09/12 09:19:40;;;;;;;2.67;2.47;;;;;;;20.46;55.66;97795.19;6039129;29;20233;-69
2022/09/12 09:22:48;;;;;;;3.00;2.53;;;;;;;21.00;54.98;97805.69;6024558;29;20245;-68
2022/09/12 09:26:04;;;;;;;4.03;2.70;;;;;;;21.34;52.32;97800.59;6024615;29;20273;-68
2022/09/12 09:29:39;;;;;;;2.57;2.37;;;;;;;21.95;51.81;97792.19;6039071;29;20642;-69
2022/09/12 09:32:46;;;;;;;2.30;2.10;;;;;;;22.23;52.50;97800.31;6040011;29;20244;-70
2022/09/12 09:36:19;;;;;;;2.40;2.20;;;;;;;22.33;50.87;97807.03;6023373;29;20300;-71
2022/09/12 09:39:33;;;;;;;3.93;2.37;;;;;;;22.54;48.72;97813.41;6038787;29;20244;-69
2022/09/12 09:42:49;;;;;;;3.43;2.63;;;;;;;22.40;49.25;97815.97;6038703;29;20713;-70
2022/09/12 09:45:52;;;;;;;2.80;2.60;;;;;;;22.15;49.96;97808.53;6040508;29;20576;-70
2022/09/12 09:48:58;;;;;;;3.10;2.67;;;;;;;21.79;51.38;97812.06;6038531;29;20237;-70
2022/09/12 09:52:01;;;;;;;3.17;2.83;;;;;;;22.00;51.35;97795.97;6023387;29;20242;-70
2022/09/12 09:55:11;;;;;;;3.00;2.37;;;;;;;21.96;50.82;97813.47;6049281;29;20287;-70
2022/09/12 09:58:30;;;;;;;2.83;2.57;;;;;;;21.80;51.22;97800.28;6088462;29;20236;-71
2022/09/12 10:01:32;;;;;;;3.60;2.90;;;;;;;21.54;51.14;97800.00;6088187;29;20240;-72
2022/09/12 10:04:40;;;;;;;2.43;2.23;;;;;;;21.20;52.99;97795.25;6088014;29;20249;-71
2022/09/12 10:07:49;;;;;;;2.63;2.43;;;;;;;21.14;53.35;97794.13;6088699;29;20247;-71
2022/09/12 10:11:00;;;;;;;3.83;3.03;;;;;;;21.08;53.01;97791.34;6087508;29;20738;-71
2022/09/12 10:14:03;;;;;;;3.60;2.70;;;;;;;21.60;52.02;97788.50;6102071;29;20232;-70
2022/09/12 10:17:45;;;;;;;3.93;3.27;;;;;;;21.75;50.52;97773.19;6088072;29;20239;-70
2022/09/12 10:20:47;;;;;;;3.93;3.00;;;;;;;22.20;50.23;97789.94;6078579;29;20223;-70
2022/09/12 10:23:59;;;;;;;2.47;2.23;;;;;;;22.41;49.39;97776.47;6089405;29;20231;-71
2022/09/12 10:27:14;;;;;;;4.20;2.30;;;;;;;22.86;48.99;97769.75;6101492;29;20418;-70
2022/09/12 10:30:20;;;;;;;3.33;2.57;;;;;;;23.03;48.65;97787.25;6103614;29;20243;-70
2022/09/12 10:33:25;;;;;;;2.93;2.43;;;;;;;22.76;49.50;97778.19;6086867;29;20247;-71
2022/09/12 10:36:38;;;;;;;3.53;2.40;;;;;;;-144.22;100.00;60274.75;6086618;29;20774;-72
2022/09/12 10:39:40;;;;;;;2.63;2.13;;;;;;;23.72;100.00;60274.75;6087761;29;20227;-70
2022/09/12 10:42:54;;;;;;;3.00;2.70;;;;;;;-144.22;100.00;60274.75;6086035;29;20236;-72
2022/09/12 10:46:21;;;;;;;2.70;2.50;;;;;;;-144.22;100.00;60274.75;6102287;29;20232;-70
2022/09/12 10:49:27;;;;;;;2.77;2.57;;;;;;;-144.22;100.00;60274.75;6086569;29;20228;-72
2022/09/12 10:52:29;;;;;;;2.80;2.60;;;;;;;-144.22;100.00;60274.75;6087117;29;20232;-71
2022/09/12 10:55:34;;;;;;;4.33;2.70;;;;;;;-144.22;100.00;60274.75;6087007;29;20718;-71
2022/09/12 10:58:54;;;;;;;2.80;2.57;;;;;;;-144.22;100.00;60274.75;6085798;29;20235;-71
2022/09/12 11:02:09;;;;;;;2.83;2.57;;;;;;;-144.22;100.00;60274.75;6086532;29;20645;-70
2022/09/12 11:05:35;;;;;;;3.97;2.43;;;;;;;-144.22;100.00;60274.75;6089140;29;20247;-70
2022/09/12 11:09:15;;;;;;;3.47;2.40;;;;;;;63.28;100.00;60274.75;6063015;29;20263;-71
2022/09/12 11:12:41;;;;;;;2.67;2.47;;;;;;;24.62;100.00;81066.84;6046916;29;20236;-71
2022/09/12 11:16:05;;;;;;;2.50;2.30;;;;;;;-144.22;100.00;60274.75;6100770;29;20247;-71
2022/09/12 11:19:40;;;;;;;5.72;2.20;;;;;;;-144.22;100.00;60274.75;6087167;29;20671;-71
2022/09/12 11:23:15;;;;;;;2.72;2.40;;;;;;;25.64;100.00;60274.75;6080282;29;20240;-71
2022/09/12 11:26:18;;;;;;;2.63;2.15;;;;;;;-144.22;100.00;60274.75;6087315;29;20223;-71
2022/09/12 11:29:25;;;;;;;2.92;2.65;;;;;;;32.13;100.00;60274.75;6086560;29;20236;-70
2022/09/12 11:32:42;;;;;;;2.63;2.10;;;;;;;-144.22;100.00;60274.75;6100785;29;20243;-71
2022/09/12 11:35:49;;;;;;;3.03;2.03;;;;;;;-144.22;100.00;60274.75;6101218;29;20741;-70
2022/09/12 11:39:02;;;;;;;3.85;2.47;;;;;;;-144.22;100.00;60274.75;6086116;29;20236;-71
2022/09/12 11:42:14;;;;;;;3.53;2.80;;;;;;;23.90;42.61;97751.50;6084318;29;20652;-71
2022/09/12 11:45:28;;;;;;;2.60;2.40;;;;;;;23.77;43.75;97736.13;6084541;29;20223;-72
2022/09/12 11:48:50;;;;;;;2.90;2.20;;;;;;;-144.22;100.00;60274.75;6099827;29;20277;-71
2022/09/12 11:52:02;;;;;;;2.45;2.25;;;;;;;24.62;100.00;81199.81;6085980;29;20239;-73
2022/09/12 11:55:16;;;;;;;3.58;2.40;;;;;;;-144.22;100.00;60274.75;6092237;29;20681;-72
2022/09/12 11:58:23;;;;;;;2.50;2.30;;;;;;;-144.22;100.00;60274.75;6075554;29;20296;-71
2022/09/12 12:01:34;;;;;;;2.78;2.10;;;;;;;25.46;100.00;60274.75;6086391;29;20239;-70
2022/09/12 12:04:58;;;;;;;2.25;2.05;;;;;;;-144.22;100.00;60274.75;6086164;29;20240;-72
2022/09/12 12:08:03;;;;;;;2.55;2.10;;;;;;;-144.22;100.00;60274.75;6099883;29;20232;-71
2022/09/12 12:11:09;;;;;;;2.10;1.92;;;;;;;42.51;100.00;60274.75;6086639;29;20224;-71
2022/09/12 12:14:18;;;;;;;5.43;2.17;;;;;;;-144.22;100.00;60274.75;6084757;29;20231;-72
2022/09/12 12:17:23;;;;;;;1.80;1.70;;;;;;;-144.22;100.00;60274.75;6085798;29;20733;-71
2022/09/12 12:20:26;;;;;;;2.03;1.83;;;;;;;-144.22;100.00;60274.75;6099848;29;20305;-72
2022/09/12 12:23:32;;;;;;;2.25;2.05;;;;;;;-144.22;100.00;60274.75;6086321;29;20232;-72
2022/09/12 12:26:37;;;;;;;3.08;2.15;;;;;;;-144.22;100.00;60274.75;6099274;29;20354;-72
2022/09/12 12:29:41;;;;;;;2.88;2.25;;;;;;;-144.22;100.00;60274.75;6099812;29;20246;-72
2022/09/12 12:32:45;;;;;;;3.00;2.33;;;;;;;-144.22;100.00;60274.75;6099312;29;20546;-71
2022/09/12 12:35:59;;;;;;;3.53;2.20;;;;;;;-144.22;100.00;60274.75;6085861;29;20250;-71
2022/09/12 12:39:31;;;;;;;2.50;2.10;;;;;;;-144.22;100.00;60274.75;6085825;29;20240;-70
2022/09/12 12:42:35;;;;;;;3.45;2.28;;;;;;;-144.22;100.00;60274.75;6086728;29;20510;-72
2022/09/12 12:45:37;;;;;;;3.28;2.10;;;;;;;-144.22;100.00;60274.75;6085868;29;20239;-70
2022/09/12 12:48:49;;;;;;;2.97;2.28;;;;;;;-144.22;100.00;60274.75;6084707;29;20239;-71
2022/09/12 12:51:57;;;;;;;2.35;1.73;;;;;;;-144.22;100.00;60274.75;6087824;29;20775;-70
2022/09/12 12:55:02;;;;;;;2.15;1.92;;;;;;;-144.22;100.00;60274.75;6067234;29;20240;-71
2022/09/12 12:58:07;;;;;;;2.50;1.85;;;;;;;-144.22;100.00;60274.75;6102174;29;20343;-71
2022/09/12 13:01:16;;;;;;;2.55;1.92;;;;;;;-144.22;100.00;60274.75;6104701;29;20244;-72
2022/09/12 13:04:22;;;;;;;2.22;2.03;;;;;;;28.07;100.00;60274.75;6088895;29;20235;-72
2022/09/12 13:07:35;;;;;;;2.53;1.90;;;;;;;-144.22;100.00;60274.75;6090645;29;20330;-71
2022/09/12 13:10:37;;;;;;;2.00;1.83;;;;;;;-144.22;100.00;60274.75;6104159;29;20841;-71
2022/09/12 13:14:03;;;;;;;1.50;1.40;;;;;;;104.84;100.00;60274.75;6102952;29;20734;-71
2022/09/12 13:17:12;;;;;;;2.30;1.88;;;;;;;-144.22;100.00;60274.75;6102623;29;20275;-72
2022/09/12 13:20:26;;;;;;;2.72;1.80;;;;;;;-144.22;100.00;60274.75;6089408;29;20239;-72
2022/09/12 13:23:31;;;;;;;2.20;2.00;;;;;;;-144.22;100.00;60274.75;6102637;29;20292;-72
2022/09/12 13:26:43;;;;;;;1.88;1.70;;;;;;;29.88;29.40;97666.50;6104097;29;20258;-71
2022/09/12 13:29:45;;;;;;;2.20;1.90;;;;;;;30.54;29.22;97659.44;6088934;29;20232;-72
2022/09/12 13:32:48;;;;;;;2.20;1.90;;;;;;;31.85;28.16;97653.88;6103083;29;20232;-70
2022/09/12 13:36:11;;;;;;;2.60;1.75;;;;;;;34.37;24.25;97652.44;6102915;29;20235;-70
2022/09/12 13:39:22;;;;;;;3.17;1.90;;;;;;;35.50;23.00;97636.16;6088072;29;20235;-71
2022/09/12 13:42:24;;;;;;;2.03;1.90;;;;;;;32.93;26.05;97648.91;6086644;29;20228;-72
2022/09/12 13:45:27;;;;;;;1.77;1.65;;;;;;;34.43;23.77;97640.41;6102377;29;20231;-72
2022/09/12 13:48:29;;;;;;;1.88;1.75;;;;;;;35.16;23.15;97638.78;6103481;29;20235;-72
2022/09/12 13:51:32;;;;;;;1.88;1.77;;;;;;;35.03;22.97;97631.19;6088721;29;20231;-71
2022/09/12 13:54:37;;;;;;;1.80;1.70;;;;;;;35.91;21.74;97626.81;6079744;29;20240;-70
2022/09/12 13:57:40;;;;;;;1.40;1.30;;;;;;;35.49;21.15;97634.50;6088511;29;20702;-71
2022/09/12 14:00:43;;;;;;;2.10;1.88;;;;;;;-144.22;100.00;60274.75;6102971;29;20722;-71
2022/09/12 14:07:21;;;;;;;1.92;1.83;;;;;;;-144.22;100.00;60274.75;6069921;29;20763;-71
2022/09/12 14:10:32;;;;;;;2.45;1.60;;;;;;;-144.22;100.00;60274.75;6086024;29;20232;-72
2022/09/12 14:13:35;;;;;;;2.33;1.90;;;;;;;-144.22;100.00;60274.75;6102885;29;20615;-72
2022/09/12 14:16:39;;;;;;;1.98;1.73;;;;;;;-144.22;100.00;60274.75;6092518;29;20647;-72
2022/09/12 14:19:42;;;;;;;2.20;2.00;;;;;;;-144.22;100.00;60274.75;6087811;29;20749;-72
2022/09/12 14:22:45;;;;;;;2.28;2.05;;;;;;;-144.22;100.00;60274.75;6087760;29;20243;-72
2022/09/12 14:25:53;;;;;;;1.92;1.73;;;;;;;-144.22;100.00;60274.75;6087707;29;20696;-72
2022/09/12 14:28:55;;;;;;;2.33;1.90;;;;;;;-144.22;100.00;60274.75;6086255;29;20227;-72
2022/09/12 14:32:04;;;;;;;2.33;1.88;;;;;;;-144.22;100.00;60274.75;6087777;29;20244;-73
2022/09/12 14:35:19;;;;;;;2.30;2.10;;;;;;;-144.22;100.00;60274.75;6087537;29;20239;-73
2022/09/12 14:38:33;;;;;;;2.30;1.80;;;;;;;-144.22;100.00;60274.75;6064268;29;20604;-72
2022/09/12 14:41:40;;;;;;;2.20;2.00;;;;;;;-144.22;100.00;60274.75;6085984;29;20231;-72
2022/09/12 14:45:01;;;;;;;1.70;1.60;;;;;;;-144.22;100.00;60274.75;6087294;29;20236;-72